sensor_id;sensor_type;location;lat;lon;timestamp;P1;durP1;ratioP1;P2;durP2;ratioP2
68993;SDS011;56054;50.968;5.816;2022-08-01T00:01:47;5.53;;;1.70;;
68993;SDS011;56054;50.968;5.816;2022-08-01T00:04:54;6.43;;;1.98;;
68993;SDS011;56054;50.968;5.816;2022-08-01T00:16:23;6.50;;;1.70;;
68993;SDS011;56054;50.968;5.816;2022-08-01T00:19:30;4.68;;;1.30;;
68993;SDS011;56054;50.968;5.816;2022-08-01T00:22:37;2.47;;;1.58;;
68993;SDS011;56054;50.968;5.816;2022-08-01T00:25:47;3.88;;;1.42;;
68993;SDS011;56054;50.968;5.816;2022-08-01T00:28:54;3.75;;;1.40;;
68993;SDS011;56054;50.968;5.816;2022-08-01T00:32:01;2.25;;;1.30;;
68993;SDS011;56054;50.968;5.816;2022-08-01T00:35:08;3.08;;;1.40;;
68993;SDS011;56054;50.968;5.816;2022-08-01T00:46:41;3.35;;;1.52;;
68993;SDS011;56054;50.968;5.816;2022-08-01T00:49:49;6.10;;;1.30;;
68993;SDS011;56054;50.968;5.816;2022-08-01T00:52:57;1.88;;;1.23;;
68993;SDS011;56054;50.968;5.816;2022-08-01T00:56:07;3.90;;;1.30;;
68993;SDS011;56054;50.968;5.816;2022-08-01T00:59:14;3.42;;;1.60;;
68993;SDS011;56054;50.968;5.816;2022-08-01T01:02:33;1.55;;;1.35;;
68993;SDS011;56054;50.968;5.816;2022-08-01T01:05:45;2.85;;;1.38;;
68993;SDS011;56054;50.968;5.816;2022-08-01T01:17:24;2.90;;;1.40;;
68993;SDS011;56054;50.968;5.816;2022-08-01T01:20:37;3.33;;;1.63;;
68993;SDS011;56054;50.968;5.816;2022-08-01T01:27:13;4.18;;;1.85;;
68993;SDS011;56054;50.968;5.816;2022-08-01T01:30:32;4.15;;;1.77;;
68993;SDS011;56054;50.968;5.816;2022-08-01T01:33:47;7.22;;;2.00;;
68993;SDS011;56054;50.968;5.816;2022-08-01T01:49:27;6.05;;;2.10;;
68993;SDS011;56054;50.968;5.816;2022-08-01T01:52:38;5.25;;;2.42;;
68993;SDS011;56054;50.968;5.816;2022-08-01T01:55:48;6.65;;;1.80;;
68993;SDS011;56054;50.968;5.816;2022-08-01T01:59:00;3.78;;;1.90;;
68993;SDS011;56054;50.968;5.816;2022-08-01T02:02:09;7.30;;;1.98;;
68993;SDS011;56054;50.968;5.816;2022-08-01T02:05:22;2.47;;;1.58;;
68993;SDS011;56054;50.968;5.816;2022-08-01T02:16:53;2.72;;;1.80;;
68993;SDS011;56054;50.968;5.816;2022-08-01T02:20:03;3.67;;;1.98;;
68993;SDS011;56054;50.968;5.816;2022-08-01T02:23:13;3.97;;;2.25;;
68993;SDS011;56054;50.968;5.816;2022-08-01T02:26:20;7.90;;;2.08;;
68993;SDS011;56054;50.968;5.816;2022-08-01T02:29:52;5.95;;;2.65;;
68993;SDS011;56054;50.968;5.816;2022-08-01T02:33:26;5.70;;;2.30;;
68993;SDS011;56054;50.968;5.816;2022-08-01T02:49:14;4.07;;;1.92;;
68993;SDS011;56054;50.968;5.816;2022-08-01T02:52:30;4.70;;;2.10;;
68993;SDS011;56054;50.968;5.816;2022-08-01T02:55:39;5.85;;;2.20;;
68993;SDS011;56054;50.968;5.816;2022-08-01T02:58:49;9.35;;;2.08;;
68993;SDS011;56054;50.968;5.816;2022-08-01T03:02:01;5.68;;;2.25;;
68993;SDS011;56054;50.968;5.816;2022-08-01T03:05:09;4.35;;;2.28;;
68993;SDS011;56054;50.968;5.816;2022-08-01T03:16:40;5.35;;;2.30;;
68993;SDS011;56054;50.968;5.816;2022-08-01T03:19:49;6.65;;;2.70;;
68993;SDS011;56054;50.968;5.816;2022-08-01T03:22:59;3.95;;;2.25;;
68993;SDS011;56054;50.968;5.816;2022-08-01T03:26:08;4.72;;;2.03;;
68993;SDS011;56054;50.968;5.816;2022-08-01T03:29:18;2.83;;;1.80;;
68993;SDS011;56054;50.968;5.816;2022-08-01T03:32:36;5.35;;;2.58;;
68993;SDS011;56054;50.968;5.816;2022-08-01T03:35:45;5.45;;;2.10;;
68993;SDS011;56054;50.968;5.816;2022-08-01T03:47:13;7.05;;;3.03;;
68993;SDS011;56054;50.968;5.816;2022-08-01T03:50:23;8.32;;;2.55;;
68993;SDS011;56054;50.968;5.816;2022-08-01T03:53:32;6.35;;;3.00;;
68993;SDS011;56054;50.968;5.816;2022-08-01T03:56:42;4.93;;;2.75;;
68993;SDS011;56054;50.968;5.816;2022-08-01T03:59:52;8.23;;;3.85;;
68993;SDS011;56054;50.968;5.816;2022-08-01T04:02:59;8.45;;;4.43;;
68993;SDS011;56054;50.968;5.816;2022-08-01T04:06:07;9.55;;;4.43;;
68993;SDS011;56054;50.968;5.816;2022-08-01T04:17:33;9.32;;;4.68;;
68993;SDS011;56054;50.968;5.816;2022-08-01T04:20:42;8.45;;;4.88;;
68993;SDS011;56054;50.968;5.816;2022-08-01T04:23:53;7.25;;;4.93;;
68993;SDS011;56054;50.968;5.816;2022-08-01T04:27:05;11.50;;;5.57;;
68993;SDS011;56054;50.968;5.816;2022-08-01T04:30:18;7.80;;;4.93;;
68993;SDS011;56054;50.968;5.816;2022-08-01T04:33:30;9.20;;;4.65;;
68993;SDS011;56054;50.968;5.816;2022-08-01T04:49:09;12.30;;;5.68;;
68993;SDS011;56054;50.968;5.816;2022-08-01T04:52:33;11.75;;;6.28;;
68993;SDS011;56054;50.968;5.816;2022-08-01T04:55:47;9.82;;;5.78;;
68993;SDS011;56054;50.968;5.816;2022-08-01T04:58:54;12.07;;;5.53;;
68993;SDS011;56054;50.968;5.816;2022-08-01T05:02:02;14.27;;;6.30;;
68993;SDS011;56054;50.968;5.816;2022-08-01T05:05:09;15.48;;;6.20;;
68993;SDS011;56054;50.968;5.816;2022-08-01T05:17:07;15.77;;;6.68;;
68993;SDS011;56054;50.968;5.816;2022-08-01T05:50:37;19.73;;;6.78;;
68993;SDS011;56054;50.968;5.816;2022-08-01T05:53:44;16.70;;;7.00;;
68993;SDS011;56054;50.968;5.816;2022-08-01T05:56:52;17.85;;;7.60;;
68993;SDS011;56054;50.968;5.816;2022-08-01T05:59:59;15.55;;;7.88;;
68993;SDS011;56054;50.968;5.816;2022-08-01T06:03:12;16.35;;;7.32;;
68993;SDS011;56054;50.968;5.816;2022-08-01T06:06:19;13.95;;;8.27;;
68993;SDS011;56054;50.968;5.816;2022-08-01T06:17:46;18.20;;;8.60;;
68993;SDS011;56054;50.968;5.816;2022-08-01T06:20:54;16.13;;;9.35;;
68993;SDS011;56054;50.968;5.816;2022-08-01T06:24:07;19.70;;;9.88;;
68993;SDS011;56054;50.968;5.816;2022-08-01T06:27:14;20.10;;;10.30;;
68993;SDS011;56054;50.968;5.816;2022-08-01T06:30:21;26.35;;;13.27;;
68993;SDS011;56054;50.968;5.816;2022-08-01T06:33:28;22.80;;;11.25;;
68993;SDS011;56054;50.968;5.816;2022-08-01T06:49:08;19.05;;;11.18;;
68993;SDS011;56054;50.968;5.816;2022-08-01T06:52:15;18.77;;;10.45;;
68993;SDS011;56054;50.968;5.816;2022-08-01T06:55:27;13.50;;;9.88;;
68993;SDS011;56054;50.968;5.816;2022-08-01T06:58:34;23.42;;;10.40;;
68993;SDS011;56054;50.968;5.816;2022-08-01T07:01:42;16.70;;;9.73;;
68993;SDS011;56054;50.968;5.816;2022-08-01T07:04:49;17.35;;;10.00;;
68993;SDS011;56054;50.968;5.816;2022-08-01T07:50:06;18.35;;;11.55;;
68993;SDS011;56054;50.968;5.816;2022-08-01T07:53:14;15.10;;;10.27;;
68993;SDS011;56054;50.968;5.816;2022-08-01T07:56:22;17.35;;;10.88;;
68993;SDS011;56054;50.968;5.816;2022-08-01T07:59:29;16.13;;;10.80;;
68993;SDS011;56054;50.968;5.816;2022-08-01T08:02:36;20.63;;;10.88;;
68993;SDS011;56054;50.968;5.816;2022-08-01T08:05:47;16.20;;;11.20;;
68993;SDS011;56054;50.968;5.816;2022-08-01T08:09:07;22.45;;;11.95;;
68993;SDS011;56054;50.968;5.816;2022-08-01T08:12:14;20.55;;;13.57;;
68993;SDS011;56054;50.968;5.816;2022-08-01T08:15:22;15.80;;;11.25;;
68993;SDS011;56054;50.968;5.816;2022-08-01T08:18:29;12.93;;;9.68;;
68993;SDS011;56054;50.968;5.816;2022-08-01T08:21:37;14.38;;;9.73;;
68993;SDS011;56054;50.968;5.816;2022-08-01T08:24:44;14.98;;;10.13;;
68993;SDS011;56054;50.968;5.816;2022-08-01T08:27:52;10.60;;;7.68;;
68993;SDS011;56054;50.968;5.816;2022-08-01T08:31:02;10.77;;;7.88;;
68993;SDS011;56054;50.968;5.816;2022-08-01T08:34:09;13.85;;;9.50;;
68993;SDS011;56054;50.968;5.816;2022-08-01T08:37:22;12.38;;;8.95;;
68993;SDS011;56054;50.968;5.816;2022-08-01T08:40:32;13.15;;;9.15;;
68993;SDS011;56054;50.968;5.816;2022-08-01T08:43:42;15.13;;;10.13;;
68993;SDS011;56054;50.968;5.816;2022-08-01T08:46:53;13.02;;;8.55;;
68993;SDS011;56054;50.968;5.816;2022-08-01T08:50:04;15.73;;;8.35;;
68993;SDS011;56054;50.968;5.816;2022-08-01T08:53:12;10.75;;;7.03;;
68993;SDS011;56054;50.968;5.816;2022-08-01T08:56:23;13.07;;;7.70;;
68993;SDS011;56054;50.968;5.816;2022-08-01T08:59:32;10.05;;;7.18;;
68993;SDS011;56054;50.968;5.816;2022-08-01T09:02:43;10.32;;;7.00;;
68993;SDS011;56054;50.968;5.816;2022-08-01T09:05:52;14.02;;;7.80;;
68993;SDS011;56054;50.968;5.816;2022-08-01T09:09:09;11.57;;;8.18;;
68993;SDS011;56054;50.968;5.816;2022-08-01T09:12:22;9.70;;;7.82;;
68993;SDS011;56054;50.968;5.816;2022-08-01T09:18:47;10.32;;;7.53;;
68993;SDS011;56054;50.968;5.816;2022-08-01T09:21:58;11.20;;;8.23;;
68993;SDS011;56054;50.968;5.816;2022-08-01T09:25:09;10.77;;;7.88;;
68993;SDS011;56054;50.968;5.816;2022-08-01T09:28:26;11.55;;;9.35;;
68993;SDS011;56054;50.968;5.816;2022-08-01T09:31:41;10.13;;;7.93;;
68993;SDS011;56054;50.968;5.816;2022-08-01T09:34:50;11.18;;;7.70;;
68993;SDS011;56054;50.968;5.816;2022-08-01T09:41:30;8.25;;;6.70;;
68993;SDS011;56054;50.968;5.816;2022-08-01T09:44:41;8.98;;;6.28;;
68993;SDS011;56054;50.968;5.816;2022-08-01T09:51:30;7.68;;;5.90;;
68993;SDS011;56054;50.968;5.816;2022-08-01T09:54:44;8.63;;;5.90;;
68993;SDS011;56054;50.968;5.816;2022-08-01T09:58:02;6.57;;;4.50;;
68993;SDS011;56054;50.968;5.816;2022-08-01T10:21:33;8.18;;;4.40;;
68993;SDS011;56054;50.968;5.816;2022-08-01T10:24:40;5.53;;;4.03;;
68993;SDS011;56054;50.968;5.816;2022-08-01T10:27:49;4.53;;;3.60;;
68993;SDS011;56054;50.968;5.816;2022-08-01T10:31:00;5.43;;;3.60;;
68993;SDS011;56054;50.968;5.816;2022-08-01T10:34:08;6.20;;;3.20;;
68993;SDS011;56054;50.968;5.816;2022-08-01T11:25:02;3.88;;;3.00;;
68993;SDS011;56054;50.968;5.816;2022-08-01T11:34:51;2.55;;;2.25;;
68993;SDS011;56054;50.968;5.816;2022-08-01T11:41:33;3.10;;;2.10;;
68993;SDS011;56054;50.968;5.816;2022-08-01T11:44:48;3.63;;;1.80;;
68993;SDS011;56054;50.968;5.816;2022-08-01T11:51:40;4.60;;;2.47;;
68993;SDS011;56054;50.968;5.816;2022-08-01T11:54:48;5.13;;;1.52;;
68993;SDS011;56054;50.968;5.816;2022-08-01T11:58:04;1.67;;;1.50;;
68993;SDS011;56054;50.968;5.816;2022-08-01T12:01:14;2.95;;;1.50;;
68993;SDS011;56054;50.968;5.816;2022-08-01T12:04:22;1.42;;;1.23;;
68993;SDS011;56054;50.968;5.816;2022-08-01T12:07:33;1.95;;;1.35;;
68993;SDS011;56054;50.968;5.816;2022-08-01T12:10:41;1.65;;;1.35;;
68993;SDS011;56054;50.968;5.816;2022-08-01T12:13:57;4.00;;;1.40;;
68993;SDS011;56054;50.968;5.816;2022-08-01T12:21:14;4.40;;;1.48;;
68993;SDS011;56054;50.968;5.816;2022-08-01T12:24:21;1.48;;;1.30;;
68993;SDS011;56054;50.968;5.816;2022-08-01T12:27:33;2.20;;;1.20;;
68993;SDS011;56054;50.968;5.816;2022-08-01T12:30:42;2.40;;;1.00;;
68993;SDS011;56054;50.968;5.816;2022-08-01T12:34:24;1.33;;;1.08;;
68993;SDS011;56054;50.968;5.816;2022-08-01T12:37:34;2.70;;;1.48;;
68993;SDS011;56054;50.968;5.816;2022-08-01T12:40:46;1.35;;;1.13;;
68993;SDS011;56054;50.968;5.816;2022-08-01T12:43:54;2.42;;;1.08;;
68993;SDS011;56054;50.968;5.816;2022-08-01T12:51:12;1.98;;;1.30;;
68993;SDS011;56054;50.968;5.816;2022-08-01T12:54:19;3.65;;;1.05;;
68993;SDS011;56054;50.968;5.816;2022-08-01T12:58:03;2.42;;;1.30;;
68993;SDS011;56054;50.968;5.816;2022-08-01T13:01:12;3.95;;;1.48;;
68993;SDS011;56054;50.968;5.816;2022-08-01T13:04:20;1.90;;;1.10;;
68993;SDS011;56054;50.968;5.816;2022-08-01T13:07:38;3.30;;;1.70;;
68993;SDS011;56054;50.968;5.816;2022-08-01T13:10:48;3.17;;;1.58;;
68993;SDS011;56054;50.968;5.816;2022-08-01T13:13:55;3.88;;;1.77;;
68993;SDS011;56054;50.968;5.816;2022-08-01T13:21:14;3.22;;;1.42;;
68993;SDS011;56054;50.968;5.816;2022-08-01T13:24:25;3.28;;;1.45;;
68993;SDS011;56054;50.968;5.816;2022-08-01T13:27:33;2.00;;;1.30;;
68993;SDS011;56054;50.968;5.816;2022-08-01T13:30:49;1.70;;;1.40;;
68993;SDS011;56054;50.968;5.816;2022-08-01T13:34:06;6.38;;;1.20;;
68993;SDS011;56054;50.968;5.816;2022-08-01T13:37:17;3.15;;;1.50;;
68993;SDS011;56054;50.968;5.816;2022-08-01T13:40:25;5.68;;;1.90;;
68993;SDS011;56054;50.968;5.816;2022-08-01T13:43:38;2.03;;;1.50;;
68993;SDS011;56054;50.968;5.816;2022-08-01T13:50:55;1.30;;;1.05;;
68993;SDS011;56054;50.968;5.816;2022-08-01T13:54:02;1.80;;;1.05;;
68993;SDS011;56054;50.968;5.816;2022-08-01T14:05:30;3.92;;;1.33;;
68993;SDS011;56054;50.968;5.816;2022-08-01T14:08:37;2.90;;;1.10;;
68993;SDS011;56054;50.968;5.816;2022-08-01T14:11:45;1.73;;;1.17;;
68993;SDS011;56054;50.968;5.816;2022-08-01T14:14:52;2.45;;;1.20;;
68993;SDS011;56054;50.968;5.816;2022-08-01T14:17:59;2.63;;;1.00;;
68993;SDS011;56054;50.968;5.816;2022-08-01T14:21:06;6.20;;;1.20;;
68993;SDS011;56054;50.968;5.816;2022-08-01T14:24:13;7.70;;;1.25;;
68993;SDS011;56054;50.968;5.816;2022-08-01T15:04:53;2.15;;;0.75;;
68993;SDS011;56054;50.968;5.816;2022-08-01T15:08:00;4.45;;;1.20;;
68993;SDS011;56054;50.968;5.816;2022-08-01T15:11:07;3.38;;;1.15;;
68993;SDS011;56054;50.968;5.816;2022-08-01T15:14:14;3.28;;;1.10;;
68993;SDS011;56054;50.968;5.816;2022-08-01T15:17:26;6.78;;;1.38;;
68993;SDS011;56054;50.968;5.816;2022-08-01T15:20:34;7.20;;;1.15;;
68993;SDS011;56054;50.968;5.816;2022-08-01T15:23:41;2.75;;;0.93;;
68993;SDS011;56054;50.968;5.816;2022-08-01T15:35:13;0.93;;;0.60;;
68993;SDS011;56054;50.968;5.816;2022-08-01T15:38:20;1.10;;;0.85;;
68993;SDS011;56054;50.968;5.816;2022-08-01T15:41:27;3.05;;;1.08;;
68993;SDS011;56054;50.968;5.816;2022-08-01T15:44:34;1.73;;;0.90;;
68993;SDS011;56054;50.968;5.816;2022-08-01T15:47:41;3.08;;;1.17;;
68993;SDS011;56054;50.968;5.816;2022-08-01T15:50:48;3.60;;;1.15;;
68993;SDS011;56054;50.968;5.816;2022-08-01T15:53:55;1.02;;;0.77;;
68993;SDS011;56054;50.968;5.816;2022-08-01T16:05:22;2.75;;;1.13;;
68993;SDS011;56054;50.968;5.816;2022-08-01T16:08:29;1.98;;;1.05;;
68993;SDS011;56054;50.968;5.816;2022-08-01T16:11:37;2.25;;;1.10;;
68993;SDS011;56054;50.968;5.816;2022-08-01T16:14:44;5.20;;;1.08;;
68993;SDS011;56054;50.968;5.816;2022-08-01T16:17:51;2.63;;;1.23;;
68993;SDS011;56054;50.968;5.816;2022-08-01T16:20:58;3.05;;;1.20;;
68993;SDS011;56054;50.968;5.816;2022-08-01T16:24:12;2.88;;;1.10;;
68993;SDS011;56054;50.968;5.816;2022-08-01T16:35:39;2.38;;;1.00;;
68993;SDS011;56054;50.968;5.816;2022-08-01T16:39:27;2.72;;;1.20;;
68993;SDS011;56054;50.968;5.816;2022-08-01T16:42:34;3.17;;;1.30;;
68993;SDS011;56054;50.968;5.816;2022-08-01T16:45:42;3.55;;;1.20;;
68993;SDS011;56054;50.968;5.816;2022-08-01T16:48:53;2.40;;;1.15;;
68993;SDS011;56054;50.968;5.816;2022-08-01T16:52:00;4.75;;;1.33;;
68993;SDS011;56054;50.968;5.816;2022-08-01T16:55:08;4.65;;;1.17;;
68993;SDS011;56054;50.968;5.816;2022-08-01T17:06:37;4.88;;;1.17;;
68993;SDS011;56054;50.968;5.816;2022-08-01T17:09:57;3.03;;;0.90;;
68993;SDS011;56054;50.968;5.816;2022-08-01T17:13:04;2.50;;;1.08;;
68993;SDS011;56054;50.968;5.816;2022-08-01T17:16:11;3.17;;;0.88;;
68993;SDS011;56054;50.968;5.816;2022-08-01T17:19:18;2.75;;;0.95;;
68993;SDS011;56054;50.968;5.816;2022-08-01T17:22:25;3.60;;;1.15;;
68993;SDS011;56054;50.968;5.816;2022-08-01T17:25:58;2.08;;;1.10;;
68993;SDS011;56054;50.968;5.816;2022-08-01T17:37:26;2.60;;;1.30;;
68993;SDS011;56054;50.968;5.816;2022-08-01T17:40:33;6.53;;;1.10;;
68993;SDS011;56054;50.968;5.816;2022-08-01T17:43:40;3.78;;;1.15;;
68993;SDS011;56054;50.968;5.816;2022-08-01T17:46:47;3.50;;;1.52;;
68993;SDS011;56054;50.968;5.816;2022-08-01T17:49:54;4.80;;;1.38;;
68993;SDS011;56054;50.968;5.816;2022-08-01T17:53:01;2.67;;;1.05;;
68993;SDS011;56054;50.968;5.816;2022-08-01T17:56:08;1.20;;;0.90;;
68993;SDS011;56054;50.968;5.816;2022-08-01T18:54:32;3.95;;;1.15;;
68993;SDS011;56054;50.968;5.816;2022-08-01T19:18:36;2.35;;;1.20;;
68993;SDS011;56054;50.968;5.816;2022-08-01T19:21:43;7.35;;;1.38;;
68993;SDS011;56054;50.968;5.816;2022-08-01T19:24:52;3.50;;;1.30;;
68993;SDS011;56054;50.968;5.816;2022-08-01T19:28:02;4.78;;;1.15;;
68993;SDS011;56054;50.968;5.816;2022-08-01T19:31:09;5.78;;;1.42;;
68993;SDS011;56054;50.968;5.816;2022-08-01T19:34:19;2.97;;;0.90;;
68993;SDS011;56054;50.968;5.816;2022-08-01T19:37:53;2.35;;;0.93;;
68993;SDS011;56054;50.968;5.816;2022-08-01T19:41:02;6.88;;;1.25;;
68993;SDS011;56054;50.968;5.816;2022-08-01T19:44:18;2.30;;;1.00;;
68993;SDS011;56054;50.968;5.816;2022-08-01T19:51:42;3.33;;;1.08;;
68993;SDS011;56054;50.968;5.816;2022-08-01T19:55:00;4.95;;;1.30;;
68993;SDS011;56054;50.968;5.816;2022-08-01T19:58:08;6.05;;;1.40;;
68993;SDS011;56054;50.968;5.816;2022-08-01T20:01:17;2.13;;;1.00;;
68993;SDS011;56054;50.968;5.816;2022-08-01T20:04:27;4.72;;;1.33;;
68993;SDS011;56054;50.968;5.816;2022-08-01T20:07:39;4.60;;;1.13;;
68993;SDS011;56054;50.968;5.816;2022-08-01T20:10:46;2.50;;;1.20;;
68993;SDS011;56054;50.968;5.816;2022-08-01T20:13:54;3.28;;;1.10;;
68993;SDS011;56054;50.968;5.816;2022-08-01T20:21:46;4.18;;;1.27;;
68993;SDS011;56054;50.968;5.816;2022-08-01T20:24:58;6.55;;;1.77;;
68993;SDS011;56054;50.968;5.816;2022-08-01T20:28:07;5.68;;;1.45;;
68993;SDS011;56054;50.968;5.816;2022-08-01T20:31:17;4.13;;;1.40;;
68993;SDS011;56054;50.968;5.816;2022-08-01T20:34:24;6.43;;;1.13;;
68993;SDS011;56054;50.968;5.816;2022-08-01T20:37:36;3.78;;;0.88;;
68993;SDS011;56054;50.968;5.816;2022-08-01T20:40:49;4.63;;;1.85;;
68993;SDS011;56054;50.968;5.816;2022-08-01T20:43:58;2.45;;;1.02;;
68993;SDS011;56054;50.968;5.816;2022-08-01T20:51:15;4.15;;;1.50;;
68993;SDS011;56054;50.968;5.816;2022-08-01T20:54:24;6.43;;;1.50;;
68993;SDS011;56054;50.968;5.816;2022-08-01T20:57:31;3.25;;;1.25;;
68993;SDS011;56054;50.968;5.816;2022-08-01T21:00:38;4.78;;;1.33;;
68993;SDS011;56054;50.968;5.816;2022-08-01T21:03:58;7.15;;;1.20;;
68993;SDS011;56054;50.968;5.816;2022-08-01T21:07:32;7.22;;;1.50;;
68993;SDS011;56054;50.968;5.816;2022-08-01T21:10:42;3.67;;;1.35;;
68993;SDS011;56054;50.968;5.816;2022-08-01T21:13:55;4.43;;;1.73;;
68993;SDS011;56054;50.968;5.816;2022-08-01T21:21:22;10.30;;;1.85;;
68993;SDS011;56054;50.968;5.816;2022-08-01T21:24:42;2.90;;;1.50;;
68993;SDS011;56054;50.968;5.816;2022-08-01T21:28:04;8.35;;;1.83;;
68993;SDS011;56054;50.968;5.816;2022-08-01T21:31:13;13.00;;;1.70;;
68993;SDS011;56054;50.968;5.816;2022-08-01T21:34:23;5.25;;;1.70;;
68993;SDS011;56054;50.968;5.816;2022-08-01T21:37:31;4.63;;;1.65;;
68993;SDS011;56054;50.968;5.816;2022-08-01T21:40:41;8.65;;;2.20;;
68993;SDS011;56054;50.968;5.816;2022-08-01T21:43:50;6.55;;;2.00;;
68993;SDS011;56054;50.968;5.816;2022-08-01T21:55:32;3.58;;;1.48;;
68993;SDS011;56054;50.968;5.816;2022-08-01T22:04:04;5.13;;;1.90;;
68993;SDS011;56054;50.968;5.816;2022-08-01T22:08:12;8.07;;;2.20;;
68993;SDS011;56054;50.968;5.816;2022-08-01T22:11:28;7.40;;;1.80;;
68993;SDS011;56054;50.968;5.816;2022-08-01T22:22:56;4.03;;;1.92;;
68993;SDS011;56054;50.968;5.816;2022-08-01T22:26:11;4.05;;;1.98;;
68993;SDS011;56054;50.968;5.816;2022-08-01T22:29:19;6.30;;;1.90;;
68993;SDS011;56054;50.968;5.816;2022-08-01T22:32:40;10.00;;;1.95;;
68993;SDS011;56054;50.968;5.816;2022-08-01T22:36:24;5.15;;;1.98;;
68993;SDS011;56054;50.968;5.816;2022-08-01T22:39:34;6.00;;;2.38;;
68993;SDS011;56054;50.968;5.816;2022-08-01T22:42:54;9.13;;;1.73;;
68993;SDS011;56054;50.968;5.816;2022-08-01T22:54:06;6.07;;;2.30;;
68993;SDS011;56054;50.968;5.816;2022-08-01T22:57:48;6.65;;;2.33;;
68993;SDS011;56054;50.968;5.816;2022-08-01T23:01:00;8.85;;;2.45;;
68993;SDS011;56054;50.968;5.816;2022-08-01T23:04:31;8.15;;;2.35;;
68993;SDS011;56054;50.968;5.816;2022-08-01T23:08:03;6.07;;;2.30;;
68993;SDS011;56054;50.968;5.816;2022-08-01T23:11:11;5.57;;;2.75;;
68993;SDS011;56054;50.968;5.816;2022-08-01T23:14:18;7.35;;;2.88;;
68993;SDS011;56054;50.968;5.816;2022-08-01T23:21:38;5.75;;;2.08;;
68993;SDS011;56054;50.968;5.816;2022-08-01T23:24:47;6.30;;;2.25;;
68993;SDS011;56054;50.968;5.816;2022-08-01T23:27:58;3.78;;;1.90;;
68993;SDS011;56054;50.968;5.816;2022-08-01T23:31:12;7.70;;;2.28;;
68993;SDS011;56054;50.968;5.816;2022-08-01T23:34:23;5.82;;;2.28;;
68993;SDS011;56054;50.968;5.816;2022-08-01T23:37:38;3.78;;;2.50;;
68993;SDS011;56054;50.968;5.816;2022-08-01T23:40:46;5.15;;;1.70;;
68993;SDS011;56054;50.968;5.816;2022-08-01T23:43:54;4.20;;;1.75;;
68993;SDS011;56054;50.968;5.816;2022-08-01T23:51:15;7.78;;;2.03;;
68993;SDS011;56054;50.968;5.816;2022-08-01T23:54:22;4.93;;;1.70;;
